createdAt,value
2023-04-27T00:00:44.867Z,94.10
2023-04-27T00:03:13.870Z,93.92
2023-04-27T00:05:43.031Z,93.93
2023-04-27T00:08:14.204Z,93.58
2023-04-27T00:10:43.254Z,93.87
2023-04-27T00:13:11.956Z,94.10
2023-04-27T00:15:41.042Z,93.80
2023-04-27T00:18:09.882Z,93.38
2023-04-27T00:20:41.262Z,94.11
2023-04-27T00:23:09.960Z,94.46
2023-04-27T00:25:40.192Z,94.73
2023-04-27T00:28:09.026Z,94.97
2023-04-27T00:30:37.798Z,95.18
2023-04-27T00:33:07.169Z,95.29
2023-04-27T00:35:36.040Z,95.46
2023-04-27T00:38:04.781Z,95.97
2023-04-27T00:40:35.778Z,96.49
2023-04-27T00:43:08.321Z,96.77
2023-04-27T00:45:43.687Z,96.74
2023-04-27T00:48:13.475Z,97.38
2023-04-27T00:50:42.752Z,97.43
2023-04-27T00:53:11.530Z,97.86
2023-04-27T00:55:44.471Z,97.99
2023-04-27T00:58:14.598Z,98.01
2023-04-27T01:00:43.739Z,97.84
2023-04-27T01:03:16.685Z,98.20
2023-04-27T01:05:48.346Z,98.57
2023-04-27T01:08:17.179Z,98.75
2023-04-27T01:10:46.025Z,98.99
2023-04-27T01:13:16.195Z,99.30
2023-04-27T01:15:44.992Z,99.04
2023-04-27T01:18:13.911Z,98.54
2023-04-27T01:20:43.268Z,97.96
2023-04-27T01:23:17.383Z,97.88
2023-04-27T01:25:46.525Z,98.28
2023-04-27T01:28:16.214Z,98.51
2023-04-27T01:30:44.993Z,99.02
2023-04-27T01:33:13.730Z,99.49
2023-04-27T01:35:42.544Z,99.91
2023-04-27T01:38:11.405Z,100.00
2023-04-27T01:40:41.732Z,100.00
2023-04-27T01:43:10.564Z,100.00
2023-04-27T01:45:39.346Z,100.00
2023-04-27T01:48:08.305Z,100.00
2023-04-27T01:50:37.080Z,100.00
2023-04-27T01:53:05.873Z,100.00
2023-04-27T01:55:34.705Z,100.00
2023-04-27T01:58:05.494Z,100.00
2023-04-27T02:05:29.504Z,100.00
2023-04-27T02:07:58.723Z,100.00
2023-04-27T02:10:29.525Z,99.83
2023-04-27T02:12:59.256Z,100.00
2023-04-27T02:15:32.243Z,100.00
2023-04-27T02:18:04.795Z,100.00
2023-04-27T02:20:34.290Z,100.00
2023-04-27T02:23:03.797Z,100.00
2023-04-27T02:25:32.566Z,100.00
2023-04-27T02:28:01.598Z,100.00
2023-04-27T02:30:33.401Z,100.00
2023-04-27T02:33:02.246Z,100.00
2023-04-27T02:35:36.007Z,100.00
2023-04-27T02:38:04.930Z,100.00
2023-04-27T02:40:36.793Z,100.00
2023-04-27T02:43:08.939Z,100.00
2023-04-27T02:45:39.746Z,100.00
2023-04-27T02:48:08.563Z,100.00
2023-04-27T02:50:42.260Z,100.00
2023-04-27T02:53:11.592Z,100.00
2023-04-27T02:55:46.445Z,100.00
2023-04-27T02:58:15.401Z,100.00
2023-04-27T03:00:45.755Z,100.00
2023-04-27T03:03:14.822Z,100.00
2023-04-27T03:07:09.301Z,100.00
2023-04-27T03:10:10.845Z,100.00
2023-04-27T03:12:42.216Z,100.00
2023-04-27T03:15:11.970Z,100.00
2023-04-27T03:17:42.402Z,100.00
2023-04-27T03:20:12.870Z,100.00
2023-04-27T03:22:41.818Z,100.00
2023-04-27T03:25:11.308Z,100.00
2023-04-27T03:27:41.119Z,100.00
2023-04-27T03:30:13.608Z,100.00
2023-04-27T03:32:47.033Z,100.00
2023-04-27T03:35:16.920Z,100.00
2023-04-27T03:37:47.641Z,100.00
2023-04-27T03:40:19.725Z,100.00
2023-04-27T03:42:48.930Z,100.00
2023-04-27T03:45:22.432Z,100.00
2023-04-27T03:47:53.896Z,100.00
2023-04-27T03:50:22.857Z,100.00
2023-04-27T03:52:51.638Z,100.00
2023-04-27T03:55:21.179Z,100.00
2023-04-27T03:57:50.342Z,100.00
2023-04-27T04:00:19.372Z,100.00
2023-04-27T04:07:50.281Z,100.00
2023-04-27T04:10:20.023Z,100.00
2023-04-27T04:12:53.157Z,100.00
2023-04-27T04:15:22.211Z,100.00
2023-04-27T04:17:54.019Z,100.00
2023-04-27T04:20:22.982Z,100.00
2023-04-27T04:22:54.153Z,100.00
2023-04-27T04:25:26.213Z,100.00
2023-04-27T04:27:55.126Z,100.00
2023-04-27T04:30:24.465Z,100.00
2023-04-27T04:32:55.460Z,100.00
2023-04-27T04:35:26.151Z,100.00
2023-04-27T04:37:56.389Z,100.00
2023-04-27T04:40:25.719Z,100.00
2023-04-27T04:42:54.828Z,100.00
2023-04-27T04:45:23.825Z,100.00
2023-04-27T04:47:54.518Z,100.00
2023-04-27T04:50:24.014Z,100.00
2023-04-27T04:52:53.449Z,100.00
2023-04-27T04:55:23.675Z,100.00
2023-04-27T04:57:53.060Z,100.00
2023-04-27T05:00:22.693Z,100.00
2023-04-27T05:02:51.961Z,100.00
2023-04-27T05:05:21.249Z,100.00
2023-04-27T05:07:50.056Z,100.00
2023-04-27T05:10:19.065Z,100.00
2023-04-27T05:12:49.362Z,100.00
2023-04-27T05:15:18.192Z,100.00
2023-04-27T05:17:46.937Z,100.00
2023-04-27T05:20:16.243Z,100.00
2023-04-27T05:22:47.817Z,100.00
2023-04-27T05:25:18.081Z,100.00
2023-04-27T05:27:46.816Z,100.00
2023-04-27T05:30:17.028Z,100.00
2023-04-27T05:32:45.796Z,100.00
2023-04-27T05:35:14.592Z,100.00
2023-04-27T05:37:43.500Z,100.00
2023-04-27T05:40:13.194Z,100.00
2023-04-27T05:42:41.987Z,99.15
2023-04-27T05:45:12.062Z,98.36
2023-04-27T05:47:44.767Z,98.94
2023-04-27T05:50:13.627Z,97.85
2023-04-27T05:52:42.422Z,97.93
2023-04-27T05:55:13.443Z,96.84
2023-04-27T05:57:42.330Z,97.24
2023-04-27T06:00:12.902Z,96.91
2023-04-27T06:02:42.056Z,96.75
2023-04-27T06:05:12.661Z,97.37
2023-04-27T06:07:43.786Z,95.87
2023-04-27T06:10:12.626Z,97.08
2023-04-27T06:12:42.219Z,97.48
2023-04-27T06:15:12.602Z,97.35
2023-04-27T06:17:43.778Z,95.14
2023-04-27T06:20:14.187Z,90.49
2023-04-27T06:22:43.019Z,91.17
2023-04-27T06:25:11.804Z,91.84
2023-04-27T06:27:40.887Z,91.40
2023-04-27T06:30:10.918Z,91.84
2023-04-27T06:32:41.957Z,90.49
2023-04-27T06:35:11.224Z,89.65
2023-04-27T06:38:40.384Z,88.03
2023-04-27T06:41:10.938Z,88.61
2023-04-27T06:43:39.804Z,86.13
2023-04-27T06:46:08.806Z,86.03
2023-04-27T06:48:37.767Z,86.68
2023-04-27T06:51:06.913Z,86.02
2023-04-27T06:53:35.855Z,83.25
2023-04-27T06:56:04.750Z,83.48
2023-04-27T06:58:35.004Z,82.20
2023-04-27T07:01:04.151Z,81.58
2023-04-27T07:03:36.201Z,80.35
2023-04-27T07:06:05.857Z,80.04
2023-04-27T07:08:35.026Z,80.31
2023-04-27T07:11:03.892Z,74.95
2023-04-27T07:13:34.077Z,78.65
2023-04-27T07:16:02.886Z,77.53
2023-04-27T07:18:31.871Z,75.89
2023-04-27T07:21:01.082Z,74.18
2023-04-27T07:23:29.939Z,74.49
2023-04-27T07:25:59.166Z,75.61
2023-04-27T07:28:29.953Z,72.59
2023-04-27T07:31:00.202Z,68.73
2023-04-27T07:33:28.997Z,65.59
2023-04-27T07:35:58.121Z,65.19
2023-04-27T07:38:29.306Z,63.61
2023-04-27T07:41:00.050Z,65.44
2023-04-27T07:43:28.932Z,64.10
2023-04-27T07:45:58.467Z,66.43
2023-04-27T07:48:32.252Z,66.79
2023-04-27T07:51:01.483Z,67.91
2023-04-27T07:53:30.355Z,68.15
2023-04-27T07:55:59.149Z,69.42
2023-04-27T07:58:28.243Z,67.23
2023-04-27T08:00:57.513Z,68.09
2023-04-27T08:03:26.371Z,61.53
2023-04-27T08:05:57.404Z,62.02
2023-04-27T08:08:26.874Z,61.60
2023-04-27T08:10:55.672Z,62.92
2023-04-27T08:13:27.030Z,63.70
2023-04-27T08:15:58.582Z,63.06
2023-04-27T08:18:27.895Z,64.06
2023-04-27T08:21:02.281Z,62.07
2023-04-27T08:23:31.361Z,63.88
2023-04-27T08:26:00.196Z,62.31
2023-04-27T08:28:29.192Z,63.83
2023-04-27T08:30:57.955Z,64.16
2023-04-27T08:33:26.901Z,60.62
2023-04-27T08:35:55.970Z,62.06
2023-04-27T08:38:26.257Z,63.07
2023-04-27T08:40:55.050Z,64.79
2023-04-27T08:43:23.802Z,64.26
2023-04-27T08:45:53.148Z,64.32
2023-04-27T08:48:22.239Z,61.23
2023-04-27T08:50:52.733Z,60.60
2023-04-27T08:53:22.336Z,61.59
2023-04-27T08:55:52.621Z,60.20
2023-04-27T08:58:23.599Z,60.96
2023-04-27T09:00:52.825Z,57.32
2023-04-27T09:03:24.208Z,57.58
2023-04-27T09:06:04.501Z,61.18
2023-04-27T09:08:45.455Z,59.89
2023-04-27T09:11:29.574Z,57.57
2023-04-27T09:13:59.775Z,56.31
2023-04-27T09:16:30.737Z,54.75
2023-04-27T09:19:00.212Z,55.82
2023-04-27T09:21:31.171Z,55.80
2023-04-27T09:23:59.876Z,56.27
2023-04-27T09:26:32.445Z,54.46
2023-04-27T09:29:01.422Z,54.36
2023-04-27T09:31:33.679Z,52.73
2023-04-27T09:34:05.202Z,52.73
2023-04-27T09:36:34.068Z,53.66
2023-04-27T09:39:05.296Z,53.91
2023-04-27T09:41:36.655Z,51.78
2023-04-27T09:44:06.064Z,51.48
2023-04-27T09:46:35.137Z,53.41
2023-04-27T09:49:06.067Z,52.94
2023-04-27T09:51:35.257Z,52.03
2023-04-27T09:54:06.033Z,48.20
2023-04-27T09:56:53.683Z,48.42
2023-04-27T09:59:57.227Z,46.55
2023-04-27T10:02:30.048Z,47.37
2023-04-27T10:05:28.658Z,50.07
2023-04-27T10:07:57.622Z,47.86
2023-04-27T10:10:28.634Z,50.20
2023-04-27T10:12:59.704Z,50.97
2023-04-27T10:15:29.935Z,49.90
2023-04-27T10:18:06.282Z,49.17
2023-04-27T10:20:38.192Z,49.23
2023-04-27T10:23:07.048Z,46.64
2023-04-27T10:25:40.410Z,47.26
2023-04-27T10:28:17.471Z,48.04
2023-04-27T10:30:49.175Z,48.45
2023-04-27T10:33:19.609Z,47.33
2023-04-27T10:35:57.361Z,47.11
2023-04-27T10:38:31.091Z,48.13
2023-04-27T10:41:01.966Z,48.76
2023-04-27T10:43:34.296Z,47.22
2023-04-27T10:46:10.519Z,47.64
2023-04-27T10:48:42.420Z,42.40
2023-04-27T10:51:12.356Z,44.54
2023-04-27T10:53:43.634Z,41.91
2023-04-27T10:56:12.413Z,43.54
2023-04-27T10:58:48.725Z,42.30
2023-04-27T11:01:25.719Z,43.74
2023-04-27T11:03:57.830Z,43.96
2023-04-27T11:06:28.242Z,41.51
2023-04-27T11:08:57.433Z,40.42
2023-04-27T11:11:26.472Z,39.00
2023-04-27T11:13:56.898Z,39.65
2023-04-27T11:18:55.877Z,40.05
2023-04-27T11:21:25.621Z,40.61
2023-04-27T11:23:54.729Z,39.43
2023-04-27T11:26:26.757Z,38.14
2023-04-27T11:29:01.570Z,38.77
2023-04-27T11:31:40.888Z,40.64
2023-04-27T11:34:10.122Z,39.87
2023-04-27T11:36:38.918Z,38.39
2023-04-27T11:39:09.372Z,36.96
2023-04-27T11:41:39.325Z,39.14
2023-04-27T11:44:11.567Z,37.09
2023-04-27T11:46:41.439Z,36.39
2023-04-27T11:49:10.341Z,39.61
2023-04-27T11:51:41.590Z,38.57
2023-04-27T11:54:11.670Z,39.15
2023-04-27T11:56:42.989Z,40.55
2023-04-27T11:59:22.123Z,40.01
2023-04-27T12:01:52.968Z,40.25
2023-04-27T12:04:22.201Z,39.45
2023-04-27T12:06:51.191Z,37.70
2023-04-27T12:09:20.001Z,39.34
2023-04-27T12:11:48.994Z,39.64
2023-04-27T12:14:21.323Z,38.89
2023-04-27T12:16:50.143Z,38.00
2023-04-27T12:19:19.281Z,37.98
2023-04-27T12:21:48.630Z,38.91
2023-04-27T12:24:17.772Z,37.88
2023-04-27T12:26:46.696Z,38.56
2023-04-27T12:29:15.460Z,38.81
2023-04-27T12:31:45.798Z,38.01
2023-04-27T12:34:14.909Z,35.89
2023-04-27T12:36:43.979Z,36.40
2023-04-27T12:39:18.430Z,36.11
2023-04-27T12:41:51.117Z,36.30
2023-04-27T12:44:21.304Z,37.51
2023-04-27T12:46:52.010Z,38.26
2023-04-27T12:49:21.264Z,38.15
2023-04-27T12:51:52.036Z,38.09
2023-04-27T12:54:21.290Z,37.96
2023-04-27T12:56:51.203Z,35.84
2023-04-27T12:59:20.154Z,35.54
2023-04-27T13:01:49.865Z,37.21
2023-04-27T13:04:22.719Z,36.96
2023-04-27T13:06:52.306Z,37.94
2023-04-27T13:09:21.562Z,38.35
2023-04-27T13:11:50.585Z,35.82
2023-04-27T13:14:19.318Z,36.77
2023-04-27T13:16:49.796Z,37.68
2023-04-27T13:19:19.976Z,37.58
2023-04-27T13:21:48.878Z,38.87
2023-04-27T13:24:18.507Z,38.37
2023-04-27T13:26:47.276Z,39.47
2023-04-27T13:29:16.038Z,39.46
2023-04-27T13:31:44.835Z,38.98
2023-04-27T13:34:16.359Z,39.11
2023-04-27T13:36:48.905Z,39.36
2023-04-27T13:39:22.072Z,39.29
2023-04-27T13:41:51.055Z,38.23
2023-04-27T13:44:20.435Z,36.33
2023-04-27T13:46:49.676Z,36.76
2023-04-27T13:49:18.424Z,36.79
2023-04-27T13:51:48.615Z,37.31
2023-04-27T13:54:17.348Z,38.51
2023-04-27T13:56:46.085Z,36.87
2023-04-27T13:59:17.338Z,37.39
2023-04-27T14:01:46.140Z,36.99
2023-04-27T14:04:15.108Z,36.49
2023-04-27T14:06:44.240Z,36.82
2023-04-27T14:09:17.011Z,37.07
2023-04-27T14:11:55.787Z,37.51
2023-04-27T14:14:25.880Z,38.44
2023-04-27T14:16:54.877Z,37.61
2023-04-27T14:19:23.836Z,37.08
2023-04-27T14:21:52.634Z,37.61
2023-04-27T14:24:23.097Z,38.41
2023-04-27T14:26:52.012Z,37.16
2023-04-27T14:29:21.301Z,38.74
2023-04-27T14:31:50.273Z,36.80
2023-04-27T14:34:21.493Z,37.91
2023-04-27T14:36:50.494Z,38.24
2023-04-27T14:39:19.189Z,39.17
2023-04-27T14:41:49.448Z,39.44
2023-04-27T14:44:18.339Z,38.62
2023-04-27T14:46:49.417Z,38.21
2023-04-27T14:49:18.293Z,37.23
2023-04-27T14:51:47.055Z,36.92
2023-04-27T14:54:16.088Z,37.86
2023-04-27T14:56:45.687Z,39.03
2023-04-27T14:59:16.196Z,37.65
2023-04-27T15:01:45.289Z,37.98
2023-04-27T15:04:14.367Z,39.29
2023-04-27T15:06:43.224Z,38.54
2023-04-27T15:09:13.498Z,39.83
2023-04-27T15:11:42.654Z,39.58
2023-04-27T15:14:11.671Z,38.26
2023-04-27T15:16:41.913Z,39.08
2023-04-27T15:19:10.995Z,37.61
2023-04-27T15:21:39.726Z,39.92
2023-04-27T15:24:08.488Z,38.49
2023-04-27T15:26:37.524Z,37.95
2023-04-27T15:29:06.495Z,38.68
2023-04-27T15:31:35.333Z,39.72
2023-04-27T15:34:05.712Z,39.63
2023-04-27T15:36:34.740Z,40.48
2023-04-27T15:39:04.154Z,39.50
2023-04-27T15:41:33.005Z,39.33
2023-04-27T15:44:01.723Z,39.60
2023-04-27T15:46:30.482Z,38.27
2023-04-27T15:53:57.570Z,39.72
2023-04-27T15:56:30.025Z,40.32
2023-04-27T15:59:02.234Z,39.69
2023-04-27T16:01:33.543Z,38.20
2023-04-27T16:04:02.589Z,40.92
2023-04-27T16:06:33.334Z,38.87
2023-04-27T16:09:04.010Z,39.68
2023-04-27T16:11:33.167Z,40.82
2023-04-27T16:14:02.230Z,40.25
2023-04-27T16:16:33.505Z,40.46
2023-04-27T16:19:02.348Z,39.79
2023-04-27T16:21:32.136Z,41.92
2023-04-27T16:24:01.247Z,41.99
2023-04-27T16:26:31.850Z,43.45
2023-04-27T16:29:00.784Z,41.73
2023-04-27T16:31:30.449Z,41.53
2023-04-27T16:33:59.341Z,42.42
2023-04-27T16:36:28.719Z,41.99
2023-04-27T16:38:57.688Z,42.35
2023-04-27T16:41:26.751Z,42.63
2023-04-27T16:43:57.041Z,42.34
2023-04-27T16:46:25.883Z,40.71
2023-04-27T16:48:54.634Z,41.46
2023-04-27T16:56:40.474Z,45.29
2023-04-27T16:59:13.375Z,45.18
2023-04-27T17:01:42.415Z,44.51
2023-04-27T17:04:12.149Z,44.33
2023-04-27T17:06:41.969Z,43.89
2023-04-27T17:09:10.989Z,44.31
2023-04-27T17:11:39.854Z,44.15
2023-04-27T17:14:08.635Z,44.27
2023-04-27T17:16:38.893Z,45.14
2023-04-27T17:19:07.752Z,44.53
2023-04-27T17:21:37.029Z,44.53
2023-04-27T17:24:10.536Z,43.96
2023-04-27T17:26:39.528Z,44.45
2023-04-27T17:29:08.338Z,44.59
2023-04-27T17:31:38.707Z,45.01
2023-04-27T17:34:10.252Z,44.84
2023-04-27T17:36:39.083Z,45.14
2023-04-27T17:39:07.851Z,44.73
2023-04-27T17:46:30.723Z,45.16
2023-04-27T17:49:03.646Z,45.15
2023-04-27T17:51:34.965Z,46.57
2023-04-27T17:54:03.891Z,46.63
2023-04-27T17:56:35.122Z,46.55
2023-04-27T17:59:09.267Z,45.82
2023-04-27T18:01:44.543Z,46.65
2023-04-27T18:04:16.706Z,45.74
2023-04-27T18:06:45.627Z,46.90
2023-04-27T18:09:14.924Z,46.58
2023-04-27T18:11:43.972Z,46.86
2023-04-27T18:14:13.390Z,46.10
2023-04-27T18:16:43.040Z,46.42
2023-04-27T18:19:11.987Z,47.57
2023-04-27T18:21:42.569Z,45.84
2023-04-27T18:24:11.491Z,47.06
2023-04-27T18:26:40.267Z,46.43
2023-04-27T18:29:09.112Z,46.19
2023-04-27T18:31:38.216Z,46.70
2023-04-27T18:34:07.008Z,47.26
2023-04-27T18:36:35.845Z,48.15
2023-04-27T18:39:06.040Z,48.77
2023-04-27T18:41:34.937Z,49.42
2023-04-27T18:44:07.004Z,49.59
2023-04-27T18:46:39.050Z,49.13
2023-04-27T18:49:07.991Z,49.82
2023-04-27T18:51:36.960Z,48.73
2023-04-27T18:54:07.408Z,49.14
2023-04-27T18:56:36.371Z,49.32
2023-04-27T19:04:00.198Z,49.37
2023-04-27T19:06:29.634Z,49.38
2023-04-27T19:08:58.684Z,49.72
2023-04-27T19:11:29.629Z,49.86
2023-04-27T19:13:58.593Z,49.91
2023-04-27T19:16:27.747Z,49.84
2023-04-27T19:18:57.134Z,50.49
2023-04-27T19:21:26.843Z,51.59
2023-04-27T19:23:55.926Z,51.45
2023-04-27T19:26:24.774Z,52.41
2023-04-27T19:28:56.097Z,52.31
2023-04-27T19:31:25.170Z,52.91
2023-04-27T19:36:37.875Z,54.30
2023-04-27T19:39:07.097Z,54.60
2023-04-27T19:41:35.929Z,56.82
2023-04-27T19:44:06.657Z,59.56
2023-04-27T19:46:35.478Z,59.34
2023-04-27T19:49:04.432Z,59.38
2023-04-27T19:51:33.238Z,60.25
2023-04-27T19:54:02.098Z,61.00
2023-04-27T19:56:31.309Z,61.00
2023-04-27T19:59:00.038Z,63.01
2023-04-27T20:01:30.539Z,64.50
2023-04-27T20:03:59.498Z,65.24
2023-04-27T20:06:29.312Z,66.45
2023-04-27T20:08:58.133Z,65.50
2023-04-27T20:11:27.169Z,64.30
2023-04-27T20:13:55.997Z,63.75
2023-04-27T20:16:27.491Z,64.22
2023-04-27T20:18:57.769Z,65.10
2023-04-27T20:21:28.136Z,64.94
2023-04-27T20:23:57.214Z,62.95
2023-04-27T20:26:26.284Z,62.64
2023-04-27T20:28:55.833Z,63.22
2023-04-27T20:31:25.636Z,64.74
2023-04-27T20:33:54.600Z,64.51
2023-04-27T20:36:25.146Z,64.57
2023-04-27T20:38:54.729Z,64.28
2023-04-27T20:41:24.198Z,62.07
2023-04-27T20:43:53.517Z,61.40
2023-04-27T20:46:22.666Z,58.43
2023-04-27T20:48:54.356Z,58.85
2023-04-27T20:51:27.908Z,59.10
2023-04-27T20:53:57.442Z,61.07
2023-04-27T20:56:27.038Z,60.47
2023-04-27T20:58:56.060Z,59.56
2023-04-27T21:01:24.935Z,61.60
2023-04-27T21:03:54.211Z,62.75
2023-04-27T21:06:23.022Z,63.04
2023-04-27T21:08:53.201Z,63.57
2023-04-27T21:11:22.397Z,62.75
2023-04-27T21:13:53.984Z,62.90
2023-04-27T21:16:22.872Z,64.45
2023-04-27T21:18:51.559Z,64.86
2023-04-27T21:21:22.079Z,61.54
2023-04-27T21:24:00.560Z,62.40
2023-04-27T21:26:37.717Z,62.47
2023-04-27T21:29:09.236Z,63.46
2023-04-27T21:31:38.165Z,63.80
2023-04-27T21:34:07.054Z,65.22
2023-04-27T21:36:37.241Z,65.23
2023-04-27T21:39:06.425Z,64.88
2023-04-27T21:41:39.253Z,65.53
2023-04-27T21:44:10.109Z,64.79
2023-04-27T21:46:38.970Z,62.83
2023-04-27T21:49:07.906Z,63.97
2023-04-27T21:51:36.928Z,64.32
2023-04-27T21:54:05.901Z,64.77
2023-04-27T21:56:34.749Z,64.20
2023-04-27T21:59:04.842Z,64.22
2023-04-27T22:01:33.714Z,64.63
2023-04-27T22:04:04.135Z,63.71
2023-04-27T22:06:33.739Z,61.48
2023-04-27T22:09:03.099Z,61.71
2023-04-27T22:11:32.309Z,58.63
2023-04-27T22:14:01.136Z,59.10
2023-04-27T22:16:31.494Z,58.99
2023-04-27T22:19:01.153Z,57.11
2023-04-27T22:21:29.941Z,58.13
2023-04-27T22:23:58.666Z,58.01
2023-04-27T22:26:27.420Z,59.74
2023-04-27T22:28:56.147Z,58.74
2023-04-27T22:31:25.071Z,58.13
2023-04-27T22:33:55.241Z,57.37
2023-04-27T22:36:26.630Z,57.93
2023-04-27T22:38:55.662Z,59.94
2023-04-27T22:41:24.433Z,61.14
2023-04-27T22:43:53.233Z,60.80
2023-04-27T22:46:23.234Z,60.33
2023-04-27T22:48:53.207Z,60.39
2023-04-27T22:51:24.079Z,62.07
2023-04-27T22:53:52.938Z,62.21
2023-04-27T22:56:22.515Z,61.93
2023-04-27T22:58:53.770Z,61.30
2023-04-27T23:01:22.680Z,58.75
2023-04-27T23:03:53.300Z,59.88
2023-04-27T23:06:23.533Z,62.11
2023-04-27T23:08:52.314Z,63.38
2023-04-27T23:11:26.921Z,62.91
2023-04-27T23:13:57.556Z,63.40
2023-04-27T23:16:26.838Z,63.30
2023-04-27T23:18:55.525Z,64.33
2023-04-27T23:21:28.284Z,63.72
2023-04-27T23:23:57.002Z,65.58
2023-04-27T23:26:25.770Z,66.53
2023-04-27T23:28:54.582Z,66.33
2023-04-27T23:31:24.406Z,65.59
2023-04-27T23:33:55.554Z,65.24
2023-04-27T23:36:24.199Z,63.57
2023-04-27T23:38:54.262Z,63.38
2023-04-27T23:41:23.375Z,62.33
2023-04-27T23:43:52.078Z,63.42
2023-04-27T23:46:20.788Z,64.75
2023-04-27T23:48:49.806Z,64.34
2023-04-27T23:51:18.658Z,63.20
2023-04-27T23:53:49.470Z,63.75
2023-04-27T23:56:20.391Z,63.43
2023-04-27T23:58:49.203Z,63.34
